createdAt,value
2018-09-26T00:00:57.914Z,103139.67
2018-09-26T00:03:28.684Z,103135.28
2018-09-26T00:05:57.702Z,103138.29
2018-09-26T00:08:27.193Z,103129.72
2018-09-26T00:10:57.221Z,103132.33
2018-09-26T00:13:27.548Z,103132.27
2018-09-26T00:15:56.265Z,103130.62
2018-09-26T00:18:24.654Z,103128.91
2018-09-26T00:20:52.985Z,103124.58
2018-09-26T00:23:22.129Z,103124.66
2018-09-26T00:25:50.466Z,103121.22
2018-09-26T00:28:18.820Z,103119.48
2018-09-26T00:30:47.243Z,103120.81
2018-09-26T00:33:16.583Z,103114.37
2018-09-26T00:35:45.762Z,103112.20
2018-09-26T00:38:14.109Z,103115.16
2018-09-26T00:40:42.451Z,103118.67
2018-09-26T00:43:11.657Z,103111.37
2018-09-26T00:45:40.913Z,103110.94
2018-09-26T00:48:09.256Z,103114.37
2018-09-26T00:50:38.529Z,103118.70
2018-09-26T00:53:07.750Z,103121.73
2018-09-26T00:55:36.880Z,103111.44
2018-09-26T00:58:05.982Z,103107.55
2018-09-26T01:00:35.908Z,103107.58
2018-09-26T01:03:05.405Z,103106.75
2018-09-26T01:05:35.209Z,103102.07
2018-09-26T01:08:04.566Z,103097.30
2018-09-26T01:10:32.918Z,103089.54
2018-09-26T01:13:02.325Z,103084.34
2018-09-26T01:15:31.700Z,103078.73
2018-09-26T01:18:01.177Z,103074.84
2018-09-26T01:20:30.420Z,103069.64
2018-09-26T01:22:59.702Z,103050.66
2018-09-26T01:25:28.962Z,103042.41
2018-09-26T01:27:58.248Z,103045.41
2018-09-26T01:30:27.329Z,103047.57
2018-09-26T01:32:57.146Z,103053.16
2018-09-26T01:35:26.713Z,103044.55
2018-09-26T01:37:56.553Z,103040.25
2018-09-26T01:40:26.300Z,103034.20
2018-09-26T01:42:56.282Z,103034.23
2018-09-26T01:45:25.949Z,103030.36
2018-09-26T01:47:54.329Z,103026.48
2018-09-26T01:50:22.709Z,103023.05
2018-09-26T01:52:52.125Z,103020.50
2018-09-26T01:55:21.501Z,103024.84
2018-09-26T01:57:49.829Z,103023.56
2018-09-26T02:00:18.170Z,103025.72
2018-09-26T02:02:47.499Z,103027.42
2018-09-26T02:05:15.942Z,103028.29
2018-09-26T02:07:44.272Z,103041.17
2018-09-26T02:10:13.522Z,103049.36
2018-09-26T02:12:42.736Z,103047.59
2018-09-26T02:15:11.974Z,103035.13
2018-09-26T02:17:40.400Z,103023.11
2018-09-26T02:20:08.795Z,103024.02
2018-09-26T02:22:38.057Z,103028.38
2018-09-26T02:25:07.045Z,103018.47
2018-09-26T02:27:36.398Z,103014.56
2018-09-26T02:30:04.799Z,103011.95
2018-09-26T02:32:33.143Z,103006.78
2018-09-26T02:35:01.824Z,103007.66
2018-09-26T02:37:30.327Z,103015.81
2018-09-26T02:39:58.673Z,103015.36
2018-09-26T02:42:27.725Z,103021.84
2018-09-26T02:44:57.233Z,103021.38
2018-09-26T02:47:27.577Z,103024.84
2018-09-26T02:49:56.284Z,103030.95
2018-09-26T02:52:26.389Z,103024.05
2018-09-26T02:54:55.689Z,103026.69
2018-09-26T02:57:25.011Z,103029.29
2018-09-26T02:59:53.353Z,103035.29
2018-09-26T03:02:21.807Z,103031.02
2018-09-26T03:04:50.162Z,103034.91
2018-09-26T03:07:19.401Z,103032.72
2018-09-26T03:09:47.769Z,103028.86
2018-09-26T03:12:16.107Z,103018.95
2018-09-26T03:14:45.453Z,103019.83
2018-09-26T03:17:13.794Z,103006.46
2018-09-26T03:19:43.137Z,103001.28
2018-09-26T03:22:11.473Z,102993.06
2018-09-26T03:24:40.697Z,102992.60
2018-09-26T03:27:09.091Z,102989.13
2018-09-26T03:29:37.409Z,102997.71
2018-09-26T03:32:06.430Z,103004.19
2018-09-26T03:34:36.750Z,103018.00
2018-09-26T03:37:06.950Z,103007.23
2018-09-26T03:39:36.538Z,103012.84
2018-09-26T03:42:04.934Z,103012.84
2018-09-26T03:44:34.756Z,103012.84
2018-09-26T03:47:03.140Z,103014.97
2018-09-26T03:49:31.467Z,103006.77
2018-09-26T03:52:00.847Z,103007.19
2018-09-26T03:54:30.065Z,103011.02
2018-09-26T03:56:59.448Z,103009.73
2018-09-26T03:59:29.221Z,102998.09
2018-09-26T04:01:58.483Z,102991.61
2018-09-26T04:04:28.105Z,102994.16
2018-09-26T04:06:58.414Z,102981.17
2018-09-26T04:09:28.228Z,102977.26
2018-09-26T04:11:57.437Z,102974.64
2018-09-26T04:14:26.458Z,102965.94
2018-09-26T04:16:56.413Z,102965.14
2018-09-26T04:19:26.394Z,102972.08
2018-09-26T04:21:56.385Z,102957.42
2018-09-26T04:24:26.459Z,102954.39
2018-09-26T04:26:56.039Z,102949.66
2018-09-26T04:29:25.063Z,102947.48
2018-09-26T04:31:54.417Z,102944.05
2018-09-26T04:34:23.693Z,102944.43
2018-09-26T04:36:52.957Z,102942.30
2018-09-26T04:39:21.357Z,102941.81
2018-09-26T04:41:50.689Z,102942.25
2018-09-26T04:44:19.906Z,102941.38
2018-09-26T04:46:48.274Z,102951.19
2018-09-26T04:49:16.679Z,102949.02
2018-09-26T04:51:46.031Z,102940.34
2018-09-26T04:54:14.375Z,102936.51
2018-09-26T04:56:42.747Z,102932.63
2018-09-26T04:59:11.088Z,102942.09
2018-09-26T05:01:39.469Z,102934.75
2018-09-26T05:04:07.808Z,102927.90
2018-09-26T05:06:36.801Z,102929.22
2018-09-26T05:09:08.388Z,102926.20
2018-09-26T05:11:38.310Z,102918.48
2018-09-26T05:14:08.437Z,102906.34
2018-09-26T05:16:37.841Z,102910.25
2018-09-26T05:19:07.120Z,102904.16
2018-09-26T05:21:36.781Z,102903.32
2018-09-26T05:24:05.762Z,102898.95
2018-09-26T05:26:35.237Z,102902.78
2018-09-26T05:29:04.340Z,102903.53
2018-09-26T05:31:32.810Z,102900.78
2018-09-26T05:34:02.053Z,102894.62
2018-09-26T05:36:30.597Z,102883.19
2018-09-26T05:38:58.945Z,102876.11
2018-09-26T05:41:28.185Z,102868.95
2018-09-26T05:43:57.682Z,102865.38
2018-09-26T05:46:27.072Z,102867.83
2018-09-26T05:48:57.389Z,102868.15
2018-09-26T05:51:26.421Z,102870.16
2018-09-26T05:53:56.376Z,102876.09
2018-09-26T05:56:25.828Z,102878.88
2018-09-26T05:58:54.170Z,102874.86
2018-09-26T06:01:22.521Z,102876.47
2018-09-26T06:03:50.929Z,102889.36
2018-09-26T06:06:19.335Z,102897.85
2018-09-26T06:08:48.720Z,102893.27
2018-09-26T06:11:17.951Z,102880.14
2018-09-26T06:13:46.289Z,102874.91
2018-09-26T06:16:15.650Z,102874.61
2018-09-26T06:18:44.045Z,102872.11
2018-09-26T06:21:12.380Z,102876.68
2018-09-26T06:23:41.626Z,102880.34
2018-09-26T06:26:10.761Z,102874.59
2018-09-26T06:28:39.962Z,102883.16
2018-09-26T06:31:08.518Z,102884.59
2018-09-26T06:33:36.858Z,102893.69
2018-09-26T06:36:07.236Z,102890.81
2018-09-26T06:38:36.474Z,102889.30
2018-09-26T06:41:06.813Z,102889.73
2018-09-26T06:43:36.323Z,102889.96
2018-09-26T06:46:06.966Z,102894.23
2018-09-26T06:48:35.777Z,102883.98
2018-09-26T06:51:04.965Z,102881.52
2018-09-26T06:53:33.284Z,102886.70
2018-09-26T06:56:01.621Z,102884.05
2018-09-26T06:58:29.960Z,102885.42
2018-09-26T07:00:58.735Z,102879.02
2018-09-26T07:03:27.652Z,102877.09
2018-09-26T07:05:56.434Z,102881.72
2018-09-26T07:08:25.758Z,102887.00
2018-09-26T07:10:54.097Z,102882.16
2018-09-26T07:13:22.424Z,102882.16
2018-09-26T07:15:50.752Z,102881.66
2018-09-26T07:18:19.102Z,102887.89
2018-09-26T07:20:47.480Z,102885.59
2018-09-26T07:23:15.807Z,102890.31
2018-09-26T07:25:44.140Z,102880.83
2018-09-26T07:28:12.473Z,102877.72
2018-09-26T07:30:40.815Z,102873.55
2018-09-26T07:33:09.990Z,102868.53
2018-09-26T07:35:38.362Z,102863.42
2018-09-26T07:38:07.765Z,102865.17
2018-09-26T07:40:37.088Z,102868.14
2018-09-26T07:43:06.460Z,102873.85
2018-09-26T07:45:35.459Z,102873.19
2018-09-26T07:48:03.873Z,102877.32
2018-09-26T07:50:32.244Z,102872.61
2018-09-26T07:53:00.571Z,102880.46
2018-09-26T07:55:28.934Z,102878.25
2018-09-26T07:57:59.022Z,102881.78
2018-09-26T08:00:28.492Z,102874.17
2018-09-26T08:02:57.737Z,102879.42
2018-09-26T08:05:26.493Z,102878.41
2018-09-26T08:07:56.557Z,102889.69
2018-09-26T08:10:25.459Z,102885.93
2018-09-26T08:12:53.789Z,102880.61
2018-09-26T08:15:22.117Z,102872.56
2018-09-26T08:17:50.447Z,102883.45
2018-09-26T08:20:18.809Z,102893.73
2018-09-26T08:22:48.046Z,102878.83
2018-09-26T08:25:16.453Z,102877.64
2018-09-26T08:27:44.901Z,102863.84
2018-09-26T08:30:13.237Z,102860.03
2018-09-26T08:32:41.575Z,102850.16
2018-09-26T08:35:09.894Z,102846.67
2018-09-26T08:37:38.225Z,102843.56
2018-09-26T08:40:07.065Z,102847.97
2018-09-26T08:42:35.893Z,102844.67
2018-09-26T08:45:05.006Z,102833.64
2018-09-26T08:47:33.413Z,102836.32
2018-09-26T08:50:01.737Z,102832.05
2018-09-26T08:52:30.073Z,102827.33
2018-09-26T08:54:58.419Z,102821.58
2018-09-26T08:57:28.233Z,102804.48
2018-09-26T08:59:58.845Z,102792.45
2018-09-26T09:02:27.669Z,102796.19
2018-09-26T09:04:56.025Z,102801.76
2018-09-26T09:07:24.348Z,102782.19
2018-09-26T09:09:52.685Z,102778.66
2018-09-26T09:12:21.090Z,102772.59
2018-09-26T09:14:49.563Z,102765.77
2018-09-26T09:17:17.781Z,102754.98
2018-09-26T09:19:46.180Z,102749.41
2018-09-26T09:22:14.538Z,102751.95
2018-09-26T09:24:42.881Z,102751.85
2018-09-26T09:27:11.293Z,102755.48
2018-09-26T09:29:39.678Z,102762.27
2018-09-26T09:32:08.067Z,102767.48
2018-09-26T09:34:37.542Z,102769.16
2018-09-26T09:37:06.724Z,102769.41
2018-09-26T09:39:36.996Z,102767.03
2018-09-26T09:42:06.352Z,102768.39
2018-09-26T09:44:37.123Z,102764.26
2018-09-26T09:47:07.709Z,102762.38
2018-09-26T09:49:37.523Z,102760.39
2018-09-26T09:52:07.817Z,102764.81
2018-09-26T09:54:36.873Z,102758.75
2018-09-26T09:57:06.271Z,102761.20
2018-09-26T09:59:34.973Z,102754.84
2018-09-26T10:02:05.454Z,102739.52
2018-09-26T10:04:34.562Z,102718.34
2018-09-26T10:07:02.897Z,102723.30
2018-09-26T10:09:31.273Z,102731.67
2018-09-26T10:12:00.641Z,102731.10
2018-09-26T10:14:29.052Z,102736.25
2018-09-26T10:16:58.253Z,102728.37
2018-09-26T10:19:28.137Z,102731.27
2018-09-26T10:21:58.379Z,102722.94
2018-09-26T10:24:27.396Z,102710.80
2018-09-26T10:26:57.392Z,102708.72
2018-09-26T10:29:26.488Z,102720.25
2018-09-26T10:31:56.561Z,102719.77
2018-09-26T10:34:25.523Z,102719.02
2018-09-26T10:36:53.821Z,102717.88
2018-09-26T10:39:22.165Z,102714.41
2018-09-26T10:41:51.384Z,102715.05
2018-09-26T10:44:20.923Z,102706.67
2018-09-26T10:46:50.264Z,102706.69
2018-09-26T10:49:18.582Z,102699.23
2018-09-26T10:51:47.831Z,102700.86
2018-09-26T10:54:17.428Z,102695.94
2018-09-26T10:56:46.624Z,102679.61
2018-09-26T10:59:14.956Z,102670.07
2018-09-26T11:01:43.323Z,102683.59
2018-09-26T11:04:12.582Z,102678.29
2018-09-26T11:06:40.877Z,102677.16
2018-09-26T11:09:09.741Z,102678.56
2018-09-26T11:11:39.113Z,102678.19
2018-09-26T11:14:08.065Z,102670.67
2018-09-26T11:16:37.466Z,102667.59
2018-09-26T11:19:06.873Z,102660.31
2018-09-26T11:21:38.427Z,102666.32
2018-09-26T11:24:07.628Z,102651.64
2018-09-26T11:26:38.363Z,102640.90
2018-09-26T11:29:07.332Z,102624.84
2018-09-26T11:31:37.569Z,102609.10
2018-09-26T11:34:08.009Z,102590.24
2018-09-26T11:36:37.434Z,102585.11
2018-09-26T11:39:08.368Z,102577.04
2018-09-26T11:41:37.459Z,102583.91
2018-09-26T11:44:06.473Z,102584.66
2018-09-26T11:46:34.991Z,102575.56
2018-09-26T11:49:03.344Z,102573.97
2018-09-26T11:51:32.516Z,102570.13
2018-09-26T11:54:01.957Z,102572.57
2018-09-26T11:56:31.714Z,102566.78
2018-09-26T11:59:00.021Z,102563.83
2018-09-26T12:01:29.336Z,102565.97
2018-09-26T12:03:58.705Z,102557.46
2018-09-26T12:06:28.904Z,102557.05
2018-09-26T12:08:58.235Z,102551.50
2018-09-26T12:11:27.229Z,102541.03
2018-09-26T12:13:57.787Z,102539.24
2018-09-26T12:16:26.568Z,102534.20
2018-09-26T12:18:55.554Z,102533.92
2018-09-26T12:21:30.445Z,102523.59
2018-09-26T12:23:52.208Z,102521.00
2018-09-26T12:26:20.512Z,102522.92
2018-09-26T12:28:48.825Z,102510.77
2018-09-26T12:31:17.128Z,102508.66
2018-09-26T12:33:45.430Z,102496.61
2018-09-26T12:36:14.647Z,102483.08
2018-09-26T12:38:43.833Z,102476.55
2018-09-26T12:41:12.139Z,102479.95
2018-09-26T12:43:40.453Z,102468.91
2018-09-26T12:46:09.805Z,102471.57
2018-09-26T12:48:39.036Z,102471.11
2018-09-26T12:51:08.281Z,102476.67
2018-09-26T12:53:38.466Z,102476.02
2018-09-26T12:56:07.580Z,102466.28
2018-09-26T12:58:36.904Z,102474.01
2018-09-26T13:01:05.984Z,102471.19
2018-09-26T13:03:35.212Z,102478.58
2018-09-26T13:06:05.387Z,102472.44
2018-09-26T13:08:35.801Z,102468.47
2018-09-26T13:11:04.698Z,102463.78
2018-09-26T13:13:33.005Z,102455.70
2018-09-26T13:16:01.326Z,102451.15
2018-09-26T13:18:29.681Z,102441.22
2018-09-26T13:20:59.000Z,102429.27
2018-09-26T13:23:28.090Z,102419.41
2018-09-26T13:25:58.089Z,102406.84
2018-09-26T13:28:27.094Z,102393.31
2018-09-26T13:30:56.882Z,102399.03
2018-09-26T13:33:25.245Z,102393.83
2018-09-26T13:35:54.729Z,102397.88
2018-09-26T13:38:23.079Z,102408.27
2018-09-26T13:40:51.441Z,102409.61
2018-09-26T13:43:20.752Z,102407.30
2018-09-26T13:45:49.264Z,102407.45
2018-09-26T13:48:17.619Z,102405.45
2018-09-26T13:50:46.824Z,102398.40
2018-09-26T13:53:16.128Z,102392.33
2018-09-26T13:55:45.474Z,102391.06
2018-09-26T13:58:14.625Z,102378.79
2018-09-26T14:00:43.941Z,102376.45
2018-09-26T14:03:13.300Z,102364.42
2018-09-26T14:05:41.609Z,102369.71
2018-09-26T14:08:10.934Z,102381.09
2018-09-26T14:10:40.253Z,102369.85
2018-09-26T14:13:09.449Z,102373.36
2018-09-26T14:15:37.765Z,102370.91
2018-09-26T14:18:07.292Z,102360.53
2018-09-26T14:20:36.792Z,102359.01
2018-09-26T14:23:07.107Z,102368.13
2018-09-26T14:25:36.025Z,102356.05
2018-09-26T14:28:06.417Z,102335.17
2018-09-26T14:30:34.970Z,102321.26
2018-09-26T14:33:03.197Z,102319.21
2018-09-26T14:35:31.624Z,102320.84
2018-09-26T14:38:00.878Z,102310.22
2018-09-26T14:40:30.212Z,102304.05
2018-09-26T14:42:59.596Z,102308.14
2018-09-26T14:45:29.375Z,102307.94
2018-09-26T14:47:58.796Z,102297.65
2018-09-26T14:50:27.885Z,102298.72
2018-09-26T14:52:58.138Z,102284.55
2018-09-26T14:55:27.465Z,102291.85
2018-09-26T14:57:57.883Z,102287.63
2018-09-26T15:00:27.882Z,102288.61
2018-09-26T15:02:58.673Z,102278.89
2018-09-26T15:05:28.484Z,102272.90
2018-09-26T15:07:58.269Z,102276.40
2018-09-26T15:10:27.791Z,102274.72
2018-09-26T15:12:56.753Z,102265.41
2018-09-26T15:15:25.684Z,102262.86
2018-09-26T15:17:54.028Z,102250.17
2018-09-26T15:20:22.428Z,102251.67
2018-09-26T15:22:50.877Z,102253.45
2018-09-26T15:25:21.212Z,102249.41
2018-09-26T15:27:49.758Z,102257.58
2018-09-26T15:30:18.079Z,102264.87
2018-09-26T15:32:46.445Z,102260.65
2018-09-26T15:35:14.826Z,102267.92
2018-09-26T15:37:43.247Z,102255.69
2018-09-26T15:40:11.627Z,102251.67
2018-09-26T15:42:39.921Z,102253.05
2018-09-26T15:45:08.476Z,102255.03
2018-09-26T15:47:37.332Z,102247.18
2018-09-26T15:50:06.896Z,102243.81
2018-09-26T15:52:36.521Z,102238.59
2018-09-26T15:55:06.305Z,102232.82
2018-09-26T15:57:34.685Z,102230.03
2018-09-26T16:00:03.045Z,102221.92
2018-09-26T16:02:31.481Z,102210.02
2018-09-26T16:04:59.808Z,102214.48
2018-09-26T16:07:29.581Z,102224.15
2018-09-26T16:09:58.761Z,102231.62
2018-09-26T16:12:27.993Z,102235.81
2018-09-26T16:14:56.781Z,102228.84
2018-09-26T16:17:25.698Z,102240.95
2018-09-26T16:19:54.013Z,102239.28
2018-09-26T16:22:23.381Z,102238.58
2018-09-26T16:24:52.521Z,102242.03
2018-09-26T16:27:21.990Z,102231.68
2018-09-26T16:29:51.305Z,102225.17
2018-09-26T16:32:19.684Z,102223.51
2018-09-26T16:34:48.002Z,102220.33
2018-09-26T16:37:16.549Z,102206.37
2018-09-26T16:39:44.850Z,102206.81
2018-09-26T16:42:13.167Z,102204.26
2018-09-26T16:44:41.473Z,102209.19
2018-09-26T16:47:10.720Z,102205.24
2018-09-26T16:49:39.026Z,102199.27
2018-09-26T16:52:08.693Z,102194.08
2018-09-26T16:54:38.016Z,102187.73
2018-09-26T16:57:07.405Z,102197.59
2018-09-26T16:59:36.394Z,102197.24
2018-09-26T17:02:06.386Z,102202.42
2018-09-26T17:04:36.544Z,102209.95
2018-09-26T17:07:06.174Z,102203.84
2018-09-26T17:09:36.075Z,102211.31
2018-09-26T17:12:06.140Z,102199.93
2018-09-26T17:14:35.072Z,102201.95
2018-09-26T17:17:05.897Z,102198.39
2018-09-26T17:19:35.949Z,102198.41
2018-09-26T17:22:06.020Z,102195.03
2018-09-26T17:24:36.485Z,102200.84
2018-09-26T17:27:06.108Z,102200.95
2018-09-26T17:29:36.108Z,102202.20
2018-09-26T17:32:05.982Z,102198.84
2018-09-26T17:34:35.905Z,102199.19
2018-09-26T17:37:05.585Z,102198.27
2018-09-26T17:39:34.830Z,102190.84
2018-09-26T17:42:04.755Z,102185.87
2018-09-26T17:44:33.097Z,102181.28
2018-09-26T17:47:01.461Z,102182.20
2018-09-26T17:49:29.790Z,102190.34
2018-09-26T17:52:19.453Z,102195.46
2018-09-26T17:54:48.050Z,102187.36
2018-09-26T17:57:16.348Z,102189.99
2018-09-26T17:59:45.593Z,102190.20
2018-09-26T18:02:15.014Z,102199.75
2018-09-26T18:04:46.832Z,102197.76
2018-09-26T18:07:17.084Z,102199.89
2018-09-26T18:09:45.406Z,102203.71
2018-09-26T18:12:14.715Z,102202.67
2018-09-26T18:14:43.007Z,102197.20
2018-09-26T18:17:11.350Z,102200.30
2018-09-26T18:19:40.517Z,102195.48
2018-09-26T18:22:08.862Z,102196.22
2018-09-26T18:24:38.024Z,102189.91
2018-09-26T18:27:06.872Z,102191.04
2018-09-26T18:29:37.375Z,102188.12
2018-09-26T18:32:06.788Z,102193.20
2018-09-26T18:34:36.958Z,102190.92
2018-09-26T18:37:06.281Z,102192.50
2018-09-26T18:39:36.086Z,102182.70
2018-09-26T18:42:05.656Z,102179.69
2018-09-26T18:44:35.372Z,102189.56
2018-09-26T18:47:03.689Z,102193.05
2018-09-26T18:49:31.992Z,102202.08
2018-09-26T18:52:00.351Z,102194.52
2018-09-26T18:54:28.652Z,102205.33
2018-09-26T18:56:57.768Z,102205.53
2018-09-26T18:59:27.439Z,102215.41
2018-09-26T19:01:57.670Z,102212.39
2018-09-26T19:04:26.044Z,102213.13
2018-09-26T19:06:54.315Z,102216.88
2018-09-26T19:09:22.668Z,102215.33
2018-09-26T19:11:51.997Z,102209.87
2018-09-26T19:14:20.288Z,102205.72
2018-09-26T19:16:49.485Z,102204.28
2018-09-26T19:19:17.787Z,102206.25
2018-09-26T19:21:46.117Z,102202.46
2018-09-26T19:24:15.312Z,102197.42
2018-09-26T19:26:43.608Z,102201.09
2018-09-26T19:29:12.257Z,102193.77
2018-09-26T19:31:41.606Z,102194.24
2018-09-26T19:34:10.807Z,102198.47
2018-09-26T19:36:40.003Z,102200.14
2018-09-26T19:39:10.235Z,102208.89
2018-09-26T19:41:39.588Z,102205.24
2018-09-26T19:44:07.973Z,102203.81
2018-09-26T19:46:37.241Z,102208.12
2018-09-26T19:49:06.553Z,102210.98
2018-09-26T19:51:36.975Z,102211.25
2018-09-26T19:54:07.136Z,102208.73
2018-09-26T19:56:36.629Z,102208.45
2018-09-26T19:59:05.594Z,102204.20
2018-09-26T20:01:34.956Z,102208.61
2018-09-26T20:04:04.157Z,102204.31
2018-09-26T20:06:34.615Z,102200.98
2018-09-26T20:09:05.509Z,102202.14
2018-09-26T20:11:34.393Z,102208.16
2018-09-26T20:14:02.762Z,102212.07
2018-09-26T20:16:31.889Z,102208.23
2018-09-26T20:19:01.194Z,102203.97
2018-09-26T20:21:30.609Z,102203.63
2018-09-26T20:23:59.126Z,102205.79
2018-09-26T20:26:29.430Z,102198.16
2018-09-26T20:28:59.065Z,102194.78
2018-09-26T20:31:28.472Z,102192.73
2018-09-26T20:33:58.536Z,102186.92
2018-09-26T20:36:27.845Z,102184.28
2018-09-26T20:38:57.145Z,102183.27
2018-09-26T20:41:25.979Z,102166.81
2018-09-26T20:43:54.385Z,102172.88
2018-09-26T20:46:22.777Z,102178.66
2018-09-26T20:48:52.440Z,102179.24
2018-09-26T20:51:21.748Z,102177.22
2018-09-26T20:53:50.045Z,102173.70
2018-09-26T20:56:18.401Z,102179.30
2018-09-26T20:58:46.833Z,102173.30
2018-09-26T21:01:15.197Z,102179.19
2018-09-26T21:03:44.421Z,102173.89
2018-09-26T21:06:12.800Z,102178.59
2018-09-26T21:08:41.205Z,102175.81
2018-09-26T21:11:10.527Z,102185.38
2018-09-26T21:13:38.941Z,102176.93
2018-09-26T21:16:08.204Z,102181.92
2018-09-26T21:18:37.429Z,102177.28
2018-09-26T21:21:06.771Z,102174.64
2018-09-26T21:23:35.853Z,102175.31
2018-09-26T21:26:04.852Z,102171.39
2018-09-26T21:28:33.148Z,102177.78
2018-09-26T21:31:01.677Z,102183.83
2018-09-26T21:33:30.066Z,102188.21
2018-09-26T21:35:59.076Z,102186.63
2018-09-26T21:38:28.141Z,102187.05
2018-09-26T21:40:56.972Z,102187.98
2018-09-26T21:43:26.049Z,102194.98
2018-09-26T21:45:56.101Z,102195.37
2018-09-26T21:48:24.436Z,102193.86
2018-09-26T21:50:52.745Z,102197.76
2018-09-26T21:53:22.040Z,102196.33
2018-09-26T21:55:51.432Z,102194.47
2018-09-26T21:58:19.984Z,102196.91
2018-09-26T22:00:53.816Z,102194.46
2018-09-26T22:03:23.090Z,102189.11
2018-09-26T22:05:51.486Z,102194.73
2018-09-26T22:08:20.080Z,102192.87
2018-09-26T22:10:49.353Z,102194.39
2018-09-26T22:13:17.755Z,102189.18
2018-09-26T22:15:47.198Z,102184.22
2018-09-26T22:18:15.622Z,102188.47
2018-09-26T22:20:45.063Z,102184.14
2018-09-26T22:23:14.500Z,102177.22
2018-09-26T22:25:42.900Z,102176.25
2018-09-26T22:28:12.175Z,102168.55
2018-09-26T22:30:40.630Z,102168.34
2018-09-26T22:33:09.882Z,102167.31
2018-09-26T22:35:38.283Z,102166.64
2018-09-26T22:38:07.726Z,102164.41
2018-09-26T22:40:37.147Z,102170.70
2018-09-26T22:43:06.204Z,102181.94
2018-09-26T22:45:36.351Z,102190.09
2018-09-26T22:48:04.836Z,102191.25
2018-09-26T22:50:33.229Z,102180.55
2018-09-26T22:53:01.613Z,102182.21
2018-09-26T22:55:30.023Z,102186.14
2018-09-26T22:57:59.487Z,102185.59
2018-09-26T23:00:29.079Z,102189.05
2018-09-26T23:02:58.396Z,102187.92
2018-09-26T23:05:27.178Z,102193.08
2018-09-26T23:07:56.066Z,102191.00
2018-09-26T23:10:24.457Z,102195.92
2018-09-26T23:12:52.888Z,102194.67
2018-09-26T23:15:21.273Z,102191.16
2018-09-26T23:17:49.658Z,102191.11
2018-09-26T23:20:18.047Z,102191.46
2018-09-26T23:22:46.437Z,102184.88
2018-09-26T23:25:14.924Z,102182.36
2018-09-26T23:27:43.645Z,102175.47
2018-09-26T23:30:13.054Z,102164.57
2018-09-26T23:32:42.338Z,102168.80
2018-09-26T23:35:11.733Z,102160.62
2018-09-26T23:37:40.961Z,102164.51
2018-09-26T23:40:09.359Z,102157.38
2018-09-26T23:42:37.746Z,102155.04
2018-09-26T23:45:07.230Z,102162.64
2018-09-26T23:47:36.491Z,102155.59
2018-09-26T23:50:06.617Z,102157.27
2018-09-26T23:52:36.262Z,102162.68
2018-09-26T23:55:05.513Z,102164.29
2018-09-26T23:57:34.837Z,102168.75
